sensor_id;sensor_type;location;lat;lon;timestamp;temperature;humidity
53073;DHT22;38955;48.916;2.336;2023-09-19T00:00:44;17.30;99.60
53073;DHT22;38955;48.916;2.336;2023-09-19T00:02:52;17.30;99.70
53073;DHT22;38955;48.916;2.336;2023-09-19T00:04:55;17.30;99.80
53073;DHT22;38955;48.916;2.336;2023-09-19T00:06:57;17.30;99.90
53073;DHT22;38955;48.916;2.336;2023-09-19T00:08:59;17.30;99.80
53073;DHT22;38955;48.916;2.336;2023-09-19T00:11:01;17.30;99.80
53073;DHT22;38955;48.916;2.336;2023-09-19T00:13:09;17.30;99.90
53073;DHT22;38955;48.916;2.336;2023-09-19T00:15:15;17.30;99.90
53073;DHT22;38955;48.916;2.336;2023-09-19T00:17:20;17.30;99.90
53073;DHT22;38955;48.916;2.336;2023-09-19T00:19:23;17.30;99.90
53073;DHT22;38955;48.916;2.336;2023-09-19T00:21:25;17.30;99.90
53073;DHT22;38955;48.916;2.336;2023-09-19T00:23:28;17.30;99.90
53073;DHT22;38955;48.916;2.336;2023-09-19T00:25:30;17.30;99.90
53073;DHT22;38955;48.916;2.336;2023-09-19T00:27:34;17.30;99.90
53073;DHT22;38955;48.916;2.336;2023-09-19T00:29:37;17.30;99.90
53073;DHT22;38955;48.916;2.336;2023-09-19T00:31:39;17.20;99.90
53073;DHT22;38955;48.916;2.336;2023-09-19T00:33:42;17.20;99.90
53073;DHT22;38955;48.916;2.336;2023-09-19T00:35:48;17.20;99.90
53073;DHT22;38955;48.916;2.336;2023-09-19T00:37:50;17.20;99.90
53073;DHT22;38955;48.916;2.336;2023-09-19T00:39:52;17.20;99.90
53073;DHT22;38955;48.916;2.336;2023-09-19T00:41:54;17.20;99.90
53073;DHT22;38955;48.916;2.336;2023-09-19T00:43:57;17.20;99.90
53073;DHT22;38955;48.916;2.336;2023-09-19T00:45:59;17.20;99.90
53073;DHT22;38955;48.916;2.336;2023-09-19T00:48:03;17.10;99.90
53073;DHT22;38955;48.916;2.336;2023-09-19T00:50:08;17.10;99.90
53073;DHT22;38955;48.916;2.336;2023-09-19T00:52:12;17.10;99.90
53073;DHT22;38955;48.916;2.336;2023-09-19T00:54:15;17.10;99.90
53073;DHT22;38955;48.916;2.336;2023-09-19T00:56:20;17.10;99.90
53073;DHT22;38955;48.916;2.336;2023-09-19T00:58:22;17.10;99.90
53073;DHT22;38955;48.916;2.336;2023-09-19T01:00:25;17.10;99.90
53073;DHT22;38955;48.916;2.336;2023-09-19T01:02:27;17.10;99.90
53073;DHT22;38955;48.916;2.336;2023-09-19T01:04:31;17.10;99.90
53073;DHT22;38955;48.916;2.336;2023-09-19T01:06:34;17.00;99.90
53073;DHT22;38955;48.916;2.336;2023-09-19T01:08:38;17.00;99.90
53073;DHT22;38955;48.916;2.336;2023-09-19T01:10:52;17.00;99.90
53073;DHT22;38955;48.916;2.336;2023-09-19T01:13:01;16.90;99.90
53073;DHT22;38955;48.916;2.336;2023-09-19T01:15:14;17.00;99.90
53073;DHT22;38955;48.916;2.336;2023-09-19T01:17:30;16.90;99.90
53073;DHT22;38955;48.916;2.336;2023-09-19T01:19:55;16.90;99.90
53073;DHT22;38955;48.916;2.336;2023-09-19T01:22:13;16.80;99.90
53073;DHT22;38955;48.916;2.336;2023-09-19T01:25:01;16.70;99.90
53073;DHT22;38955;48.916;2.336;2023-09-19T01:27:25;16.70;99.90
53073;DHT22;38955;48.916;2.336;2023-09-19T01:29:37;16.70;99.90
53073;DHT22;38955;48.916;2.336;2023-09-19T01:31:42;16.70;99.90
53073;DHT22;38955;48.916;2.336;2023-09-19T01:33:57;16.70;99.90
53073;DHT22;38955;48.916;2.336;2023-09-19T01:36:02;16.70;99.90
53073;DHT22;38955;48.916;2.336;2023-09-19T01:38:05;16.70;99.90
53073;DHT22;38955;48.916;2.336;2023-09-19T01:40:11;16.60;99.90
53073;DHT22;38955;48.916;2.336;2023-09-19T01:42:27;16.60;99.90
53073;DHT22;38955;48.916;2.336;2023-09-19T01:44:40;16.60;99.90
53073;DHT22;38955;48.916;2.336;2023-09-19T01:46:46;16.60;99.90
53073;DHT22;38955;48.916;2.336;2023-09-19T01:48:54;16.50;99.90
53073;DHT22;38955;48.916;2.336;2023-09-19T01:51:01;16.60;99.90
53073;DHT22;38955;48.916;2.336;2023-09-19T01:53:07;16.60;99.90
53073;DHT22;38955;48.916;2.336;2023-09-19T01:55:12;16.60;99.90
53073;DHT22;38955;48.916;2.336;2023-09-19T01:57:26;16.60;99.90
53073;DHT22;38955;48.916;2.336;2023-09-19T01:59:35;16.60;99.90
53073;DHT22;38955;48.916;2.336;2023-09-19T02:01:39;16.60;99.90
53073;DHT22;38955;48.916;2.336;2023-09-19T02:03:44;16.60;99.90
53073;DHT22;38955;48.916;2.336;2023-09-19T02:05:49;16.50;99.90
53073;DHT22;38955;48.916;2.336;2023-09-19T02:07:52;16.50;99.90
53073;DHT22;38955;48.916;2.336;2023-09-19T02:09:55;16.50;99.90
53073;DHT22;38955;48.916;2.336;2023-09-19T02:11:57;16.60;99.90
53073;DHT22;38955;48.916;2.336;2023-09-19T02:14:01;16.50;99.90
53073;DHT22;38955;48.916;2.336;2023-09-19T02:16:03;16.50;99.90
53073;DHT22;38955;48.916;2.336;2023-09-19T02:18:06;16.50;99.90
53073;DHT22;38955;48.916;2.336;2023-09-19T02:20:11;16.50;99.90
53073;DHT22;38955;48.916;2.336;2023-09-19T02:22:16;16.50;99.90
53073;DHT22;38955;48.916;2.336;2023-09-19T02:24:18;16.50;99.90
53073;DHT22;38955;48.916;2.336;2023-09-19T02:26:21;16.50;99.90
53073;DHT22;38955;48.916;2.336;2023-09-19T02:28:23;16.40;99.90
53073;DHT22;38955;48.916;2.336;2023-09-19T02:30:25;16.50;99.90
53073;DHT22;38955;48.916;2.336;2023-09-19T02:32:27;16.40;99.90
53073;DHT22;38955;48.916;2.336;2023-09-19T02:34:32;16.40;99.90
53073;DHT22;38955;48.916;2.336;2023-09-19T02:36:36;16.40;99.90
53073;DHT22;38955;48.916;2.336;2023-09-19T02:38:38;16.30;99.90
53073;DHT22;38955;48.916;2.336;2023-09-19T02:40:40;16.30;99.90
53073;DHT22;38955;48.916;2.336;2023-09-19T02:42:42;16.40;99.90
53073;DHT22;38955;48.916;2.336;2023-09-19T02:44:48;16.40;99.90
53073;DHT22;38955;48.916;2.336;2023-09-19T02:46:50;16.30;99.90
53073;DHT22;38955;48.916;2.336;2023-09-19T02:48:53;16.40;99.90
53073;DHT22;38955;48.916;2.336;2023-09-19T02:50:56;16.40;99.90
53073;DHT22;38955;48.916;2.336;2023-09-19T02:53:00;16.30;99.90
53073;DHT22;38955;48.916;2.336;2023-09-19T02:55:02;16.30;99.90
53073;DHT22;38955;48.916;2.336;2023-09-19T02:57:06;16.30;99.90
53073;DHT22;38955;48.916;2.336;2023-09-19T02:59:09;16.30;99.90
53073;DHT22;38955;48.916;2.336;2023-09-19T03:01:13;16.20;99.90
53073;DHT22;38955;48.916;2.336;2023-09-19T03:03:15;16.20;99.90
53073;DHT22;38955;48.916;2.336;2023-09-19T03:05:21;16.30;99.90
53073;DHT22;38955;48.916;2.336;2023-09-19T03:07:23;16.30;99.90
53073;DHT22;38955;48.916;2.336;2023-09-19T03:09:28;16.20;99.90
53073;DHT22;38955;48.916;2.336;2023-09-19T03:11:30;16.30;99.90
53073;DHT22;38955;48.916;2.336;2023-09-19T03:13:33;16.30;99.90
53073;DHT22;38955;48.916;2.336;2023-09-19T03:15:35;16.20;99.90
53073;DHT22;38955;48.916;2.336;2023-09-19T03:17:44;16.20;99.90
53073;DHT22;38955;48.916;2.336;2023-09-19T03:19:46;16.20;99.90
53073;DHT22;38955;48.916;2.336;2023-09-19T03:21:49;16.20;99.90
53073;DHT22;38955;48.916;2.336;2023-09-19T03:23:52;16.20;99.90
53073;DHT22;38955;48.916;2.336;2023-09-19T03:25:55;16.20;99.90
53073;DHT22;38955;48.916;2.336;2023-09-19T03:27:58;16.20;99.90
53073;DHT22;38955;48.916;2.336;2023-09-19T03:30:00;16.20;99.90
53073;DHT22;38955;48.916;2.336;2023-09-19T03:32:02;16.20;99.90
53073;DHT22;38955;48.916;2.336;2023-09-19T03:34:05;16.20;99.90
53073;DHT22;38955;48.916;2.336;2023-09-19T03:36:07;16.20;99.90
53073;DHT22;38955;48.916;2.336;2023-09-19T03:38:09;16.20;99.90
53073;DHT22;38955;48.916;2.336;2023-09-19T03:40:12;16.20;99.90
53073;DHT22;38955;48.916;2.336;2023-09-19T03:42:16;16.10;99.90
53073;DHT22;38955;48.916;2.336;2023-09-19T03:44:18;16.10;99.90
53073;DHT22;38955;48.916;2.336;2023-09-19T03:46:20;16.20;99.90
53073;DHT22;38955;48.916;2.336;2023-09-19T03:48:22;16.20;99.90
53073;DHT22;38955;48.916;2.336;2023-09-19T03:50:24;16.20;99.90
53073;DHT22;38955;48.916;2.336;2023-09-19T03:52:27;16.10;99.90
53073;DHT22;38955;48.916;2.336;2023-09-19T03:54:29;16.10;99.90
53073;DHT22;38955;48.916;2.336;2023-09-19T03:56:31;16.10;99.90
53073;DHT22;38955;48.916;2.336;2023-09-19T03:58:35;16.10;99.90
53073;DHT22;38955;48.916;2.336;2023-09-19T04:00:41;16.10;99.90
53073;DHT22;38955;48.916;2.336;2023-09-19T04:02:43;16.10;99.90
53073;DHT22;38955;48.916;2.336;2023-09-19T04:04:45;16.10;99.90
53073;DHT22;38955;48.916;2.336;2023-09-19T04:06:47;16.10;99.90
53073;DHT22;38955;48.916;2.336;2023-09-19T04:08:49;16.00;99.90
53073;DHT22;38955;48.916;2.336;2023-09-19T04:10:51;16.00;99.90
53073;DHT22;38955;48.916;2.336;2023-09-19T04:12:55;16.00;99.90
53073;DHT22;38955;48.916;2.336;2023-09-19T04:14:59;16.10;99.90
53073;DHT22;38955;48.916;2.336;2023-09-19T04:17:01;16.10;99.90
53073;DHT22;38955;48.916;2.336;2023-09-19T04:19:03;16.10;99.90
53073;DHT22;38955;48.916;2.336;2023-09-19T04:21:05;16.00;99.90
53073;DHT22;38955;48.916;2.336;2023-09-19T04:23:07;16.00;99.90
53073;DHT22;38955;48.916;2.336;2023-09-19T04:25:10;16.00;99.90
53073;DHT22;38955;48.916;2.336;2023-09-19T04:27:12;16.10;99.90
53073;DHT22;38955;48.916;2.336;2023-09-19T04:29:17;16.10;99.90
53073;DHT22;38955;48.916;2.336;2023-09-19T04:31:22;16.10;99.90
53073;DHT22;38955;48.916;2.336;2023-09-19T04:33:25;16.10;99.90
53073;DHT22;38955;48.916;2.336;2023-09-19T04:35:29;16.10;99.90
53073;DHT22;38955;48.916;2.336;2023-09-19T04:37:33;16.10;99.90
53073;DHT22;38955;48.916;2.336;2023-09-19T04:39:35;16.00;99.90
53073;DHT22;38955;48.916;2.336;2023-09-19T04:41:37;16.00;99.90
53073;DHT22;38955;48.916;2.336;2023-09-19T04:43:43;16.10;99.90
53073;DHT22;38955;48.916;2.336;2023-09-19T04:45:45;16.10;99.90
53073;DHT22;38955;48.916;2.336;2023-09-19T04:47:50;16.10;99.90
53073;DHT22;38955;48.916;2.336;2023-09-19T04:49:52;16.10;99.90
53073;DHT22;38955;48.916;2.336;2023-09-19T04:51:54;16.10;99.90
53073;DHT22;38955;48.916;2.336;2023-09-19T04:53:57;16.10;99.90
53073;DHT22;38955;48.916;2.336;2023-09-19T04:55:59;16.10;99.90
53073;DHT22;38955;48.916;2.336;2023-09-19T04:58:01;16.10;99.90
53073;DHT22;38955;48.916;2.336;2023-09-19T05:00:07;16.00;99.90
53073;DHT22;38955;48.916;2.336;2023-09-19T05:02:14;16.00;99.90
53073;DHT22;38955;48.916;2.336;2023-09-19T05:04:17;16.00;99.90
53073;DHT22;38955;48.916;2.336;2023-09-19T05:06:20;15.90;99.90
53073;DHT22;38955;48.916;2.336;2023-09-19T05:08:24;15.90;99.90
53073;DHT22;38955;48.916;2.336;2023-09-19T05:10:27;15.90;99.90
53073;DHT22;38955;48.916;2.336;2023-09-19T05:12:29;15.90;99.90
53073;DHT22;38955;48.916;2.336;2023-09-19T05:14:31;15.80;99.90
53073;DHT22;38955;48.916;2.336;2023-09-19T05:16:33;15.90;99.90
53073;DHT22;38955;48.916;2.336;2023-09-19T05:18:38;15.90;99.90
53073;DHT22;38955;48.916;2.336;2023-09-19T05:20:42;15.90;99.90
53073;DHT22;38955;48.916;2.336;2023-09-19T05:22:45;15.90;99.90
53073;DHT22;38955;48.916;2.336;2023-09-19T05:24:48;15.80;99.90
53073;DHT22;38955;48.916;2.336;2023-09-19T05:26:50;15.80;99.90
53073;DHT22;38955;48.916;2.336;2023-09-19T05:28:52;15.90;99.90
53073;DHT22;38955;48.916;2.336;2023-09-19T05:30:55;15.80;99.90
53073;DHT22;38955;48.916;2.336;2023-09-19T05:32:57;15.80;99.90
53073;DHT22;38955;48.916;2.336;2023-09-19T05:34:59;15.90;99.90
53073;DHT22;38955;48.916;2.336;2023-09-19T05:37:02;15.80;99.90
53073;DHT22;38955;48.916;2.336;2023-09-19T05:39:05;15.80;99.90
53073;DHT22;38955;48.916;2.336;2023-09-19T05:41:10;15.80;99.90
53073;DHT22;38955;48.916;2.336;2023-09-19T05:43:15;15.80;99.90
53073;DHT22;38955;48.916;2.336;2023-09-19T05:45:18;15.80;99.90
53073;DHT22;38955;48.916;2.336;2023-09-19T05:47:26;15.80;99.90
53073;DHT22;38955;48.916;2.336;2023-09-19T05:49:29;15.80;99.90
53073;DHT22;38955;48.916;2.336;2023-09-19T05:51:31;15.80;99.90
53073;DHT22;38955;48.916;2.336;2023-09-19T05:53:34;15.80;99.90
53073;DHT22;38955;48.916;2.336;2023-09-19T05:55:36;15.80;99.90
53073;DHT22;38955;48.916;2.336;2023-09-19T05:57:38;15.80;99.90
53073;DHT22;38955;48.916;2.336;2023-09-19T05:59:41;15.80;99.90
53073;DHT22;38955;48.916;2.336;2023-09-19T06:01:44;15.80;99.90
53073;DHT22;38955;48.916;2.336;2023-09-19T06:03:46;15.90;99.90
53073;DHT22;38955;48.916;2.336;2023-09-19T06:05:50;15.80;99.90
53073;DHT22;38955;48.916;2.336;2023-09-19T06:07:53;15.90;99.90
53073;DHT22;38955;48.916;2.336;2023-09-19T06:10:00;15.90;99.90
53073;DHT22;38955;48.916;2.336;2023-09-19T06:12:02;15.90;99.90
53073;DHT22;38955;48.916;2.336;2023-09-19T06:14:06;15.90;99.90
53073;DHT22;38955;48.916;2.336;2023-09-19T06:16:08;15.90;99.90
53073;DHT22;38955;48.916;2.336;2023-09-19T06:18:11;15.90;99.90
53073;DHT22;38955;48.916;2.336;2023-09-19T06:20:19;15.90;99.90
53073;DHT22;38955;48.916;2.336;2023-09-19T06:22:22;16.00;99.90
53073;DHT22;38955;48.916;2.336;2023-09-19T06:24:24;16.00;99.90
53073;DHT22;38955;48.916;2.336;2023-09-19T06:26:28;16.00;99.90
53073;DHT22;38955;48.916;2.336;2023-09-19T06:28:31;16.00;99.90
53073;DHT22;38955;48.916;2.336;2023-09-19T06:30:35;16.00;99.90
53073;DHT22;38955;48.916;2.336;2023-09-19T06:32:37;16.00;99.90
53073;DHT22;38955;48.916;2.336;2023-09-19T06:34:40;16.00;99.90
53073;DHT22;38955;48.916;2.336;2023-09-19T06:36:45;16.10;99.90
53073;DHT22;38955;48.916;2.336;2023-09-19T06:38:48;16.10;99.90
53073;DHT22;38955;48.916;2.336;2023-09-19T06:40:50;16.10;99.90
53073;DHT22;38955;48.916;2.336;2023-09-19T06:42:54;16.30;99.90
53073;DHT22;38955;48.916;2.336;2023-09-19T06:44:57;16.40;99.90
53073;DHT22;38955;48.916;2.336;2023-09-19T06:46:59;16.50;99.90
53073;DHT22;38955;48.916;2.336;2023-09-19T06:49:01;16.50;99.90
53073;DHT22;38955;48.916;2.336;2023-09-19T06:51:08;16.50;99.90
53073;DHT22;38955;48.916;2.336;2023-09-19T06:53:10;16.60;99.90
53073;DHT22;38955;48.916;2.336;2023-09-19T06:55:12;16.70;99.90
53073;DHT22;38955;48.916;2.336;2023-09-19T06:57:15;16.70;99.90
53073;DHT22;38955;48.916;2.336;2023-09-19T06:59:18;16.70;99.90
53073;DHT22;38955;48.916;2.336;2023-09-19T07:01:21;16.70;99.90
53073;DHT22;38955;48.916;2.336;2023-09-19T07:03:23;16.80;99.90
53073;DHT22;38955;48.916;2.336;2023-09-19T07:05:27;16.90;99.90
53073;DHT22;38955;48.916;2.336;2023-09-19T07:07:30;16.90;99.90
53073;DHT22;38955;48.916;2.336;2023-09-19T07:09:32;16.80;99.90
53073;DHT22;38955;48.916;2.336;2023-09-19T07:11:34;16.90;99.90
53073;DHT22;38955;48.916;2.336;2023-09-19T07:13:36;16.90;99.90
53073;DHT22;38955;48.916;2.336;2023-09-19T07:15:40;16.80;99.90
53073;DHT22;38955;48.916;2.336;2023-09-19T07:17:48;16.80;99.90
53073;DHT22;38955;48.916;2.336;2023-09-19T07:19:50;16.70;99.90
53073;DHT22;38955;48.916;2.336;2023-09-19T07:21:53;16.80;99.90
53073;DHT22;38955;48.916;2.336;2023-09-19T07:23:55;16.80;99.90
53073;DHT22;38955;48.916;2.336;2023-09-19T07:25:57;16.90;99.90
53073;DHT22;38955;48.916;2.336;2023-09-19T07:28:00;16.90;99.90
53073;DHT22;38955;48.916;2.336;2023-09-19T07:30:03;17.00;99.90
53073;DHT22;38955;48.916;2.336;2023-09-19T07:32:07;17.00;99.90
53073;DHT22;38955;48.916;2.336;2023-09-19T07:34:10;17.10;99.90
53073;DHT22;38955;48.916;2.336;2023-09-19T07:36:12;17.10;99.90
53073;DHT22;38955;48.916;2.336;2023-09-19T07:38:17;17.20;99.90
53073;DHT22;38955;48.916;2.336;2023-09-19T07:40:20;17.20;99.90
53073;DHT22;38955;48.916;2.336;2023-09-19T07:42:23;17.20;99.90
53073;DHT22;38955;48.916;2.336;2023-09-19T07:44:25;17.30;99.80
53073;DHT22;38955;48.916;2.336;2023-09-19T07:46:27;17.30;99.90
53073;DHT22;38955;48.916;2.336;2023-09-19T07:48:31;17.30;99.80
53073;DHT22;38955;48.916;2.336;2023-09-19T07:50:34;17.40;99.80
53073;DHT22;38955;48.916;2.336;2023-09-19T07:52:38;17.40;99.50
53073;DHT22;38955;48.916;2.336;2023-09-19T07:54:41;17.40;99.40
53073;DHT22;38955;48.916;2.336;2023-09-19T07:56:46;17.50;99.40
53073;DHT22;38955;48.916;2.336;2023-09-19T07:58:48;17.40;99.10
53073;DHT22;38955;48.916;2.336;2023-09-19T08:00:50;17.50;99.10
53073;DHT22;38955;48.916;2.336;2023-09-19T08:02:53;17.50;99.10
53073;DHT22;38955;48.916;2.336;2023-09-19T08:05:07;17.40;99.00
53073;DHT22;38955;48.916;2.336;2023-09-19T08:07:13;17.50;99.10
53073;DHT22;38955;48.916;2.336;2023-09-19T08:09:15;17.50;98.90
53073;DHT22;38955;48.916;2.336;2023-09-19T08:11:26;17.50;99.10
53073;DHT22;38955;48.916;2.336;2023-09-19T08:13:32;17.50;99.10
53073;DHT22;38955;48.916;2.336;2023-09-19T08:15:34;17.60;98.60
53073;DHT22;38955;48.916;2.336;2023-09-19T08:17:39;17.60;99.00
53073;DHT22;38955;48.916;2.336;2023-09-19T08:19:42;17.60;99.00
53073;DHT22;38955;48.916;2.336;2023-09-19T08:21:48;17.60;99.10
53073;DHT22;38955;48.916;2.336;2023-09-19T08:23:50;17.60;99.00
53073;DHT22;38955;48.916;2.336;2023-09-19T08:25:56;17.50;99.00
53073;DHT22;38955;48.916;2.336;2023-09-19T08:27:58;17.50;99.00
53073;DHT22;38955;48.916;2.336;2023-09-19T08:30:04;17.50;98.90
53073;DHT22;38955;48.916;2.336;2023-09-19T08:32:06;17.50;99.00
53073;DHT22;38955;48.916;2.336;2023-09-19T08:34:08;17.50;98.90
53073;DHT22;38955;48.916;2.336;2023-09-19T08:36:10;17.60;98.90
53073;DHT22;38955;48.916;2.336;2023-09-19T08:38:15;17.70;99.00
53073;DHT22;38955;48.916;2.336;2023-09-19T08:40:17;17.70;98.90
53073;DHT22;38955;48.916;2.336;2023-09-19T08:42:19;17.80;98.60
53073;DHT22;38955;48.916;2.336;2023-09-19T08:44:23;18.00;98.70
53073;DHT22;38955;48.916;2.336;2023-09-19T08:46:28;18.00;98.60
53073;DHT22;38955;48.916;2.336;2023-09-19T08:48:32;18.10;98.60
53073;DHT22;38955;48.916;2.336;2023-09-19T08:50:41;18.10;98.40
53073;DHT22;38955;48.916;2.336;2023-09-19T08:52:46;18.20;98.30
53073;DHT22;38955;48.916;2.336;2023-09-19T08:54:58;18.20;98.40
53073;DHT22;38955;48.916;2.336;2023-09-19T08:57:06;18.30;98.40
53073;DHT22;38955;48.916;2.336;2023-09-19T08:59:13;18.30;98.20
53073;DHT22;38955;48.916;2.336;2023-09-19T09:01:16;18.30;98.30
53073;DHT22;38955;48.916;2.336;2023-09-19T09:03:25;18.40;98.40
53073;DHT22;38955;48.916;2.336;2023-09-19T09:05:28;18.40;98.10
53073;DHT22;38955;48.916;2.336;2023-09-19T09:07:30;18.30;98.10
53073;DHT22;38955;48.916;2.336;2023-09-19T09:09:33;18.40;98.10
53073;DHT22;38955;48.916;2.336;2023-09-19T09:11:38;18.30;97.90
53073;DHT22;38955;48.916;2.336;2023-09-19T09:13:42;18.40;98.00
53073;DHT22;38955;48.916;2.336;2023-09-19T09:15:44;18.40;98.00
53073;DHT22;38955;48.916;2.336;2023-09-19T09:17:47;18.50;97.90
53073;DHT22;38955;48.916;2.336;2023-09-19T09:19:52;18.50;98.00
53073;DHT22;38955;48.916;2.336;2023-09-19T09:21:54;18.50;97.90
53073;DHT22;38955;48.916;2.336;2023-09-19T09:23:56;18.60;97.80
53073;DHT22;38955;48.916;2.336;2023-09-19T09:26:00;18.60;97.80
53073;DHT22;38955;48.916;2.336;2023-09-19T09:28:06;18.50;97.70
53073;DHT22;38955;48.916;2.336;2023-09-19T09:30:09;18.50;97.80
53073;DHT22;38955;48.916;2.336;2023-09-19T09:32:21;18.50;97.70
53073;DHT22;38955;48.916;2.336;2023-09-19T09:34:32;18.60;98.00
53073;DHT22;38955;48.916;2.336;2023-09-19T09:36:36;18.60;97.70
53073;DHT22;38955;48.916;2.336;2023-09-19T09:38:46;18.60;97.50
53073;DHT22;38955;48.916;2.336;2023-09-19T09:40:50;18.60;97.50
53073;DHT22;38955;48.916;2.336;2023-09-19T09:43:02;18.70;97.50
53073;DHT22;38955;48.916;2.336;2023-09-19T09:45:17;18.80;97.40
53073;DHT22;38955;48.916;2.336;2023-09-19T09:47:41;18.80;97.30
53073;DHT22;38955;48.916;2.336;2023-09-19T09:49:47;18.90;97.00
53073;DHT22;38955;48.916;2.336;2023-09-19T09:52:01;18.90;97.10
53073;DHT22;38955;48.916;2.336;2023-09-19T09:54:11;19.00;96.60
53073;DHT22;38955;48.916;2.336;2023-09-19T09:56:17;19.10;96.80
53073;DHT22;38955;48.916;2.336;2023-09-19T09:58:20;19.20;96.50
53073;DHT22;38955;48.916;2.336;2023-09-19T10:00:27;19.30;96.50
53073;DHT22;38955;48.916;2.336;2023-09-19T10:02:44;19.30;96.00
53073;DHT22;38955;48.916;2.336;2023-09-19T10:04:54;19.40;96.20
53073;DHT22;38955;48.916;2.336;2023-09-19T10:07:27;19.40;95.90
53073;DHT22;38955;48.916;2.336;2023-09-19T10:09:45;19.60;95.90
53073;DHT22;38955;48.916;2.336;2023-09-19T10:12:02;19.70;95.50
53073;DHT22;38955;48.916;2.336;2023-09-19T10:14:06;19.70;95.40
53073;DHT22;38955;48.916;2.336;2023-09-19T10:16:18;19.60;95.00
53073;DHT22;38955;48.916;2.336;2023-09-19T10:18:26;19.70;95.30
53073;DHT22;38955;48.916;2.336;2023-09-19T10:20:36;19.70;94.90
53073;DHT22;38955;48.916;2.336;2023-09-19T10:22:40;19.80;95.20
53073;DHT22;38955;48.916;2.336;2023-09-19T10:24:45;19.70;94.50
53073;DHT22;38955;48.916;2.336;2023-09-19T10:27:01;19.70;94.40
53073;DHT22;38955;48.916;2.336;2023-09-19T10:29:06;19.70;94.00
53073;DHT22;38955;48.916;2.336;2023-09-19T10:31:10;19.90;94.20
53073;DHT22;38955;48.916;2.336;2023-09-19T10:33:19;20.00;94.20
53073;DHT22;38955;48.916;2.336;2023-09-19T10:35:25;20.20;94.50
53073;DHT22;38955;48.916;2.336;2023-09-19T10:37:27;20.30;93.90
53073;DHT22;38955;48.916;2.336;2023-09-19T10:39:32;20.30;93.70
53073;DHT22;38955;48.916;2.336;2023-09-19T10:41:35;20.40;93.70
53073;DHT22;38955;48.916;2.336;2023-09-19T10:43:39;20.40;93.40
53073;DHT22;38955;48.916;2.336;2023-09-19T10:45:47;20.40;93.60
53073;DHT22;38955;48.916;2.336;2023-09-19T10:47:51;20.40;93.40
53073;DHT22;38955;48.916;2.336;2023-09-19T10:49:55;20.50;93.50
53073;DHT22;38955;48.916;2.336;2023-09-19T10:51:59;20.50;93.50
53073;DHT22;38955;48.916;2.336;2023-09-19T10:54:04;20.40;93.40
53073;DHT22;38955;48.916;2.336;2023-09-19T10:56:08;20.40;93.50
53073;DHT22;38955;48.916;2.336;2023-09-19T10:58:25;20.40;93.70
53073;DHT22;38955;48.916;2.336;2023-09-19T11:00:27;20.40;93.40
53073;DHT22;38955;48.916;2.336;2023-09-19T11:02:36;20.40;93.30
53073;DHT22;38955;48.916;2.336;2023-09-19T11:04:38;20.40;93.20
53073;DHT22;38955;48.916;2.336;2023-09-19T11:06:42;20.50;93.30
53073;DHT22;38955;48.916;2.336;2023-09-19T11:08:52;20.40;93.00
53073;DHT22;38955;48.916;2.336;2023-09-19T11:10:58;20.40;93.10
53073;DHT22;38955;48.916;2.336;2023-09-19T11:13:23;20.40;93.10
53073;DHT22;38955;48.916;2.336;2023-09-19T11:18:56;20.60;92.70
53073;DHT22;38955;48.916;2.336;2023-09-19T11:23:37;20.70;92.30
53073;DHT22;38955;48.916;2.336;2023-09-19T11:25:42;20.80;92.60
53073;DHT22;38955;48.916;2.336;2023-09-19T11:30:34;20.90;92.20
53073;DHT22;38955;48.916;2.336;2023-09-19T11:35:58;20.90;92.20
53073;DHT22;38955;48.916;2.336;2023-09-19T11:38:01;21.00;92.00
53073;DHT22;38955;48.916;2.336;2023-09-19T11:40:09;21.00;92.60
53073;DHT22;38955;48.916;2.336;2023-09-19T11:42:43;21.00;92.40
53073;DHT22;38955;48.916;2.336;2023-09-19T11:44:47;21.00;92.20
53073;DHT22;38955;48.916;2.336;2023-09-19T11:46:54;21.00;92.40
53073;DHT22;38955;48.916;2.336;2023-09-19T11:49:04;21.10;92.40
53073;DHT22;38955;48.916;2.336;2023-09-19T11:51:13;21.10;92.30
53073;DHT22;38955;48.916;2.336;2023-09-19T11:53:24;21.00;92.30
53073;DHT22;38955;48.916;2.336;2023-09-19T11:55:34;20.90;92.50
53073;DHT22;38955;48.916;2.336;2023-09-19T11:57:36;21.00;92.90
53073;DHT22;38955;48.916;2.336;2023-09-19T11:59:39;20.90;92.50
53073;DHT22;38955;48.916;2.336;2023-09-19T12:01:43;20.90;92.60
53073;DHT22;38955;48.916;2.336;2023-09-19T12:03:54;20.80;92.70
53073;DHT22;38955;48.916;2.336;2023-09-19T12:05:59;20.80;92.90
53073;DHT22;38955;48.916;2.336;2023-09-19T12:08:01;20.80;92.70
53073;DHT22;38955;48.916;2.336;2023-09-19T12:10:07;20.80;92.90
53073;DHT22;38955;48.916;2.336;2023-09-19T12:12:22;20.80;92.80
53073;DHT22;38955;48.916;2.336;2023-09-19T12:14:26;20.80;93.00
53073;DHT22;38955;48.916;2.336;2023-09-19T12:16:29;20.70;92.80
53073;DHT22;38955;48.916;2.336;2023-09-19T12:18:36;20.80;93.30
53073;DHT22;38955;48.916;2.336;2023-09-19T12:20:44;20.90;93.40
53073;DHT22;38955;48.916;2.336;2023-09-19T12:22:51;20.90;92.80
53073;DHT22;38955;48.916;2.336;2023-09-19T12:24:53;21.00;93.00
53073;DHT22;38955;48.916;2.336;2023-09-19T12:27:07;21.10;93.10
53073;DHT22;38955;48.916;2.336;2023-09-19T12:29:16;21.20;92.80
53073;DHT22;38955;48.916;2.336;2023-09-19T12:31:21;21.20;92.70
53073;DHT22;38955;48.916;2.336;2023-09-19T12:33:23;21.20;92.70
53073;DHT22;38955;48.916;2.336;2023-09-19T12:35:28;21.10;93.00
53073;DHT22;38955;48.916;2.336;2023-09-19T12:37:32;21.10;92.70
53073;DHT22;38955;48.916;2.336;2023-09-19T12:39:42;21.20;92.90
53073;DHT22;38955;48.916;2.336;2023-09-19T12:41:44;21.20;92.80
53073;DHT22;38955;48.916;2.336;2023-09-19T12:43:49;21.30;93.20
53073;DHT22;38955;48.916;2.336;2023-09-19T12:45:54;21.30;92.90
53073;DHT22;38955;48.916;2.336;2023-09-19T12:48:18;21.20;93.00
53073;DHT22;38955;48.916;2.336;2023-09-19T12:50:23;21.20;92.90
53073;DHT22;38955;48.916;2.336;2023-09-19T12:52:35;21.20;93.00
53073;DHT22;38955;48.916;2.336;2023-09-19T12:54:39;21.20;93.10
53073;DHT22;38955;48.916;2.336;2023-09-19T12:56:42;21.20;92.90
53073;DHT22;38955;48.916;2.336;2023-09-19T12:58:51;21.20;92.90
53073;DHT22;38955;48.916;2.336;2023-09-19T13:00:58;21.40;93.30
53073;DHT22;38955;48.916;2.336;2023-09-19T13:03:24;21.50;93.30
53073;DHT22;38955;48.916;2.336;2023-09-19T13:05:51;21.60;93.00
53073;DHT22;38955;48.916;2.336;2023-09-19T13:08:18;21.60;92.70
53073;DHT22;38955;48.916;2.336;2023-09-19T13:10:21;21.70;92.60
53073;DHT22;38955;48.916;2.336;2023-09-19T13:12:35;21.60;92.70
53073;DHT22;38955;48.916;2.336;2023-09-19T13:14:39;21.60;92.90
53073;DHT22;38955;48.916;2.336;2023-09-19T13:16:55;21.50;92.60
53073;DHT22;38955;48.916;2.336;2023-09-19T13:18:58;21.60;92.10
53073;DHT22;38955;48.916;2.336;2023-09-19T13:21:06;21.60;92.30
53073;DHT22;38955;48.916;2.336;2023-09-19T13:23:26;21.80;92.10